sensor_id;sensor_type;location;lat;lon;timestamp;P1;durP1;ratioP1;P2;durP2;ratioP2
41687;SDS011;27371;42.686;23.362;2023-09-08T00:03:48;13.35;;;8.88;;
41687;SDS011;27371;42.686;23.362;2023-09-08T00:06:14;9.18;;;7.97;;
41687;SDS011;27371;42.686;23.362;2023-09-08T00:08:39;11.88;;;8.02;;
41687;SDS011;27371;42.686;23.362;2023-09-08T00:11:04;9.65;;;7.82;;
41687;SDS011;27371;42.686;23.362;2023-09-08T00:13:31;8.77;;;7.38;;
41687;SDS011;27371;42.686;23.362;2023-09-08T00:15:57;9.38;;;7.55;;
41687;SDS011;27371;42.686;23.362;2023-09-08T00:18:22;11.10;;;7.03;;
41687;SDS011;27371;42.686;23.362;2023-09-08T00:20:48;8.50;;;7.00;;
41687;SDS011;27371;42.686;23.362;2023-09-08T00:23:13;10.15;;;6.22;;
41687;SDS011;27371;42.686;23.362;2023-09-08T00:25:39;9.02;;;6.45;;
41687;SDS011;27371;42.686;23.362;2023-09-08T00:28:04;10.30;;;6.43;;
41687;SDS011;27371;42.686;23.362;2023-09-08T00:30:30;9.30;;;6.47;;
41687;SDS011;27371;42.686;23.362;2023-09-08T00:32:55;8.70;;;6.32;;
41687;SDS011;27371;42.686;23.362;2023-09-08T00:35:20;7.10;;;5.95;;
41687;SDS011;27371;42.686;23.362;2023-09-08T00:37:46;10.57;;;5.88;;
41687;SDS011;27371;42.686;23.362;2023-09-08T00:40:11;10.52;;;6.07;;
41687;SDS011;27371;42.686;23.362;2023-09-08T00:42:37;7.72;;;6.20;;
41687;SDS011;27371;42.686;23.362;2023-09-08T00:45:02;8.27;;;6.05;;
41687;SDS011;27371;42.686;23.362;2023-09-08T00:47:29;6.53;;;5.20;;
41687;SDS011;27371;42.686;23.362;2023-09-08T00:49:54;9.95;;;5.95;;
41687;SDS011;27371;42.686;23.362;2023-09-08T00:52:20;9.77;;;5.50;;
41687;SDS011;27371;42.686;23.362;2023-09-08T00:54:45;8.57;;;5.72;;
41687;SDS011;27371;42.686;23.362;2023-09-08T00:57:11;7.72;;;5.70;;
41687;SDS011;27371;42.686;23.362;2023-09-08T00:59:36;6.93;;;5.00;;
41687;SDS011;27371;42.686;23.362;2023-09-08T01:02:03;8.18;;;5.72;;
41687;SDS011;27371;42.686;23.362;2023-09-08T01:04:28;8.13;;;5.65;;
41687;SDS011;27371;42.686;23.362;2023-09-08T01:06:55;6.97;;;5.38;;
41687;SDS011;27371;42.686;23.362;2023-09-08T01:09:21;8.20;;;5.40;;
41687;SDS011;27371;42.686;23.362;2023-09-08T01:11:48;6.55;;;5.25;;
41687;SDS011;27371;42.686;23.362;2023-09-08T01:14:13;7.78;;;5.00;;
41687;SDS011;27371;42.686;23.362;2023-09-08T01:16:42;7.47;;;5.43;;
41687;SDS011;27371;42.686;23.362;2023-09-08T01:19:10;6.68;;;5.38;;
41687;SDS011;27371;42.686;23.362;2023-09-08T01:27:32;9.55;;;5.38;;
41687;SDS011;27371;42.686;23.362;2023-09-08T01:30:01;10.70;;;5.10;;
41687;SDS011;27371;42.686;23.362;2023-09-08T01:32:28;6.32;;;4.50;;
41687;SDS011;27371;42.686;23.362;2023-09-08T01:34:55;9.75;;;4.72;;
41687;SDS011;27371;42.686;23.362;2023-09-08T01:37:23;6.28;;;4.60;;
41687;SDS011;27371;42.686;23.362;2023-09-08T01:39:49;9.55;;;4.47;;
41687;SDS011;27371;42.686;23.362;2023-09-08T01:42:14;5.70;;;4.57;;
41687;SDS011;27371;42.686;23.362;2023-09-08T01:44:40;9.05;;;4.93;;
41687;SDS011;27371;42.686;23.362;2023-09-08T01:47:05;6.07;;;4.70;;
41687;SDS011;27371;42.686;23.362;2023-09-08T01:49:30;7.40;;;4.88;;
41687;SDS011;27371;42.686;23.362;2023-09-08T01:51:56;10.20;;;4.97;;
41687;SDS011;27371;42.686;23.362;2023-09-08T01:54:22;7.78;;;5.22;;
41687;SDS011;27371;42.686;23.362;2023-09-08T01:56:47;8.55;;;5.03;;
41687;SDS011;27371;42.686;23.362;2023-09-08T01:59:12;5.30;;;4.57;;
41687;SDS011;27371;42.686;23.362;2023-09-08T02:01:38;7.43;;;5.20;;
41687;SDS011;27371;42.686;23.362;2023-09-08T02:04:04;8.27;;;5.30;;
41687;SDS011;27371;42.686;23.362;2023-09-08T02:06:30;9.20;;;5.43;;
41687;SDS011;27371;42.686;23.362;2023-09-08T02:08:56;6.35;;;4.78;;
41687;SDS011;27371;42.686;23.362;2023-09-08T02:11:21;7.85;;;5.30;;
41687;SDS011;27371;42.686;23.362;2023-09-08T02:13:47;9.63;;;5.70;;
41687;SDS011;27371;42.686;23.362;2023-09-08T02:16:13;6.13;;;4.88;;
41687;SDS011;27371;42.686;23.362;2023-09-08T02:18:41;6.88;;;4.85;;
41687;SDS011;27371;42.686;23.362;2023-09-08T02:21:07;8.57;;;5.07;;
41687;SDS011;27371;42.686;23.362;2023-09-08T02:23:33;7.80;;;5.72;;
41687;SDS011;27371;42.686;23.362;2023-09-08T02:25:58;8.60;;;5.00;;
41687;SDS011;27371;42.686;23.362;2023-09-08T02:28:24;7.18;;;5.18;;
41687;SDS011;27371;42.686;23.362;2023-09-08T02:30:50;6.57;;;5.20;;
41687;SDS011;27371;42.686;23.362;2023-09-08T02:33:15;11.45;;;5.85;;
41687;SDS011;27371;42.686;23.362;2023-09-08T02:35:41;11.05;;;5.78;;
41687;SDS011;27371;42.686;23.362;2023-09-08T02:38:06;7.72;;;5.80;;
41687;SDS011;27371;42.686;23.362;2023-09-08T02:40:32;8.07;;;5.57;;
41687;SDS011;27371;42.686;23.362;2023-09-08T02:43:00;8.65;;;5.78;;
41687;SDS011;27371;42.686;23.362;2023-09-08T02:45:26;10.70;;;5.93;;
41687;SDS011;27371;42.686;23.362;2023-09-08T02:47:51;9.20;;;6.03;;
41687;SDS011;27371;42.686;23.362;2023-09-08T02:50:16;7.03;;;5.22;;
41687;SDS011;27371;42.686;23.362;2023-09-08T02:52:42;7.80;;;5.55;;
41687;SDS011;27371;42.686;23.362;2023-09-08T02:55:08;8.80;;;6.07;;
41687;SDS011;27371;42.686;23.362;2023-09-08T02:57:34;9.85;;;6.43;;
41687;SDS011;27371;42.686;23.362;2023-09-08T02:59:59;8.30;;;5.95;;
41687;SDS011;27371;42.686;23.362;2023-09-08T03:02:25;7.47;;;5.55;;
41687;SDS011;27371;42.686;23.362;2023-09-08T03:04:51;8.75;;;6.43;;
41687;SDS011;27371;42.686;23.362;2023-09-08T03:07:17;7.97;;;5.82;;
41687;SDS011;27371;42.686;23.362;2023-09-08T03:09:43;8.98;;;5.57;;
41687;SDS011;27371;42.686;23.362;2023-09-08T03:12:08;8.40;;;6.22;;
41687;SDS011;27371;42.686;23.362;2023-09-08T03:14:34;9.02;;;5.93;;
41687;SDS011;27371;42.686;23.362;2023-09-08T03:16:59;8.90;;;6.50;;
41687;SDS011;27371;42.686;23.362;2023-09-08T03:19:25;7.55;;;6.15;;
41687;SDS011;27371;42.686;23.362;2023-09-08T03:21:51;12.73;;;7.35;;
41687;SDS011;27371;42.686;23.362;2023-09-08T03:24:16;8.02;;;6.40;;
41687;SDS011;27371;42.686;23.362;2023-09-08T03:26:42;8.20;;;6.20;;
41687;SDS011;27371;42.686;23.362;2023-09-08T03:29:07;8.05;;;6.57;;
41687;SDS011;27371;42.686;23.362;2023-09-08T03:31:33;10.38;;;6.18;;
41687;SDS011;27371;42.686;23.362;2023-09-08T03:33:58;10.27;;;7.25;;
41687;SDS011;27371;42.686;23.362;2023-09-08T03:36:24;9.68;;;6.63;;
41687;SDS011;27371;42.686;23.362;2023-09-08T03:38:50;11.57;;;6.60;;
41687;SDS011;27371;42.686;23.362;2023-09-08T03:41:15;10.13;;;6.38;;
41687;SDS011;27371;42.686;23.362;2023-09-08T03:43:41;11.27;;;6.68;;
41687;SDS011;27371;42.686;23.362;2023-09-08T03:46:06;10.57;;;6.72;;
41687;SDS011;27371;42.686;23.362;2023-09-08T03:48:32;9.80;;;6.63;;
41687;SDS011;27371;42.686;23.362;2023-09-08T03:50:57;7.95;;;6.07;;
41687;SDS011;27371;42.686;23.362;2023-09-08T03:53:23;8.65;;;6.93;;
41687;SDS011;27371;42.686;23.362;2023-09-08T03:55:49;10.15;;;6.70;;
41687;SDS011;27371;42.686;23.362;2023-09-08T03:58:14;7.95;;;7.00;;
41687;SDS011;27371;42.686;23.362;2023-09-08T04:00:41;11.98;;;7.25;;
41687;SDS011;27371;42.686;23.362;2023-09-08T04:03:06;10.15;;;7.05;;
41687;SDS011;27371;42.686;23.362;2023-09-08T04:05:32;11.85;;;7.82;;
41687;SDS011;27371;42.686;23.362;2023-09-08T04:07:58;10.85;;;7.10;;
41687;SDS011;27371;42.686;23.362;2023-09-08T04:10:24;8.25;;;6.68;;
41687;SDS011;27371;42.686;23.362;2023-09-08T04:12:49;10.55;;;7.10;;
41687;SDS011;27371;42.686;23.362;2023-09-08T04:15:15;13.38;;;7.38;;
41687;SDS011;27371;42.686;23.362;2023-09-08T04:17:40;8.63;;;6.40;;
41687;SDS011;27371;42.686;23.362;2023-09-08T04:20:06;11.52;;;7.47;;
41687;SDS011;27371;42.686;23.362;2023-09-08T04:22:33;9.43;;;6.70;;
41687;SDS011;27371;42.686;23.362;2023-09-08T04:24:59;10.13;;;6.60;;
41687;SDS011;27371;42.686;23.362;2023-09-08T04:27:25;11.52;;;6.28;;
41687;SDS011;27371;42.686;23.362;2023-09-08T04:29:50;10.55;;;6.45;;
41687;SDS011;27371;42.686;23.362;2023-09-08T04:32:16;10.75;;;6.75;;
41687;SDS011;27371;42.686;23.362;2023-09-08T04:34:41;9.43;;;6.82;;
41687;SDS011;27371;42.686;23.362;2023-09-08T04:37:08;10.35;;;7.30;;
41687;SDS011;27371;42.686;23.362;2023-09-08T04:39:33;8.93;;;6.97;;
41687;SDS011;27371;42.686;23.362;2023-09-08T04:42:00;9.43;;;7.15;;
41687;SDS011;27371;42.686;23.362;2023-09-08T04:44:26;12.25;;;6.80;;
41687;SDS011;27371;42.686;23.362;2023-09-08T04:46:52;9.43;;;6.22;;
41687;SDS011;27371;42.686;23.362;2023-09-08T04:49:18;11.30;;;6.97;;
41687;SDS011;27371;42.686;23.362;2023-09-08T04:51:43;9.88;;;6.40;;
41687;SDS011;27371;42.686;23.362;2023-09-08T04:54:09;10.23;;;6.68;;
41687;SDS011;27371;42.686;23.362;2023-09-08T04:56:35;10.32;;;5.72;;
41687;SDS011;27371;42.686;23.362;2023-09-08T04:59:00;7.88;;;5.85;;
41687;SDS011;27371;42.686;23.362;2023-09-08T05:01:26;12.75;;;6.78;;
41687;SDS011;27371;42.686;23.362;2023-09-08T05:03:52;9.35;;;6.40;;
41687;SDS011;27371;42.686;23.362;2023-09-08T05:06:18;10.55;;;6.28;;
41687;SDS011;27371;42.686;23.362;2023-09-08T05:08:43;9.75;;;6.10;;
41687;SDS011;27371;42.686;23.362;2023-09-08T05:11:09;10.50;;;5.90;;
41687;SDS011;27371;42.686;23.362;2023-09-08T05:13:35;9.02;;;5.38;;
41687;SDS011;27371;42.686;23.362;2023-09-08T05:16:00;8.23;;;4.93;;
41687;SDS011;27371;42.686;23.362;2023-09-08T05:18:36;7.60;;;5.32;;
41687;SDS011;27371;42.686;23.362;2023-09-08T05:21:02;11.07;;;4.95;;
41687;SDS011;27371;42.686;23.362;2023-09-08T05:23:28;9.32;;;4.95;;
41687;SDS011;27371;42.686;23.362;2023-09-08T05:25:53;8.18;;;4.85;;
41687;SDS011;27371;42.686;23.362;2023-09-08T05:28:19;9.55;;;4.10;;
41687;SDS011;27371;42.686;23.362;2023-09-08T05:30:44;8.65;;;5.13;;
41687;SDS011;27371;42.686;23.362;2023-09-08T05:33:10;8.13;;;5.10;;
41687;SDS011;27371;42.686;23.362;2023-09-08T05:35:35;7.10;;;4.30;;
41687;SDS011;27371;42.686;23.362;2023-09-08T05:38:01;10.63;;;4.88;;
41687;SDS011;27371;42.686;23.362;2023-09-08T05:40:27;7.70;;;4.65;;
41687;SDS011;27371;42.686;23.362;2023-09-08T05:42:53;9.57;;;4.82;;
41687;SDS011;27371;42.686;23.362;2023-09-08T05:45:18;6.22;;;4.32;;
41687;SDS011;27371;42.686;23.362;2023-09-08T05:47:44;10.82;;;4.30;;
41687;SDS011;27371;42.686;23.362;2023-09-08T05:50:09;9.68;;;4.55;;
41687;SDS011;27371;42.686;23.362;2023-09-08T05:52:36;9.55;;;4.80;;
41687;SDS011;27371;42.686;23.362;2023-09-08T05:55:01;6.38;;;4.40;;
41687;SDS011;27371;42.686;23.362;2023-09-08T05:57:27;7.68;;;4.35;;
41687;SDS011;27371;42.686;23.362;2023-09-08T05:59:52;7.97;;;4.63;;
41687;SDS011;27371;42.686;23.362;2023-09-08T06:02:18;8.77;;;3.95;;
41687;SDS011;27371;42.686;23.362;2023-09-08T06:04:43;9.25;;;3.85;;
41687;SDS011;27371;42.686;23.362;2023-09-08T06:07:09;6.25;;;4.47;;
41687;SDS011;27371;42.686;23.362;2023-09-08T06:09:34;8.65;;;4.80;;
41687;SDS011;27371;42.686;23.362;2023-09-08T06:12:00;9.27;;;4.25;;
41687;SDS011;27371;42.686;23.362;2023-09-08T06:14:25;10.80;;;4.18;;
41687;SDS011;27371;42.686;23.362;2023-09-08T06:16:51;7.38;;;4.25;;
41687;SDS011;27371;42.686;23.362;2023-09-08T06:19:16;6.53;;;3.67;;
41687;SDS011;27371;42.686;23.362;2023-09-08T06:21:42;8.52;;;3.75;;
41687;SDS011;27371;42.686;23.362;2023-09-08T06:24:07;7.93;;;3.65;;
41687;SDS011;27371;42.686;23.362;2023-09-08T06:26:33;8.25;;;3.78;;
41687;SDS011;27371;42.686;23.362;2023-09-08T06:28:58;6.00;;;3.40;;
41687;SDS011;27371;42.686;23.362;2023-09-08T06:31:24;7.03;;;3.10;;
41687;SDS011;27371;42.686;23.362;2023-09-08T06:33:49;6.18;;;2.83;;
41687;SDS011;27371;42.686;23.362;2023-09-08T06:36:17;9.10;;;3.20;;
41687;SDS011;27371;42.686;23.362;2023-09-08T06:38:43;6.50;;;3.05;;
41687;SDS011;27371;42.686;23.362;2023-09-08T06:41:12;4.88;;;3.35;;
41687;SDS011;27371;42.686;23.362;2023-09-08T06:43:38;10.18;;;2.97;;
41687;SDS011;27371;42.686;23.362;2023-09-08T06:46:03;7.90;;;3.10;;
41687;SDS011;27371;42.686;23.362;2023-09-08T06:48:29;5.15;;;2.95;;
41687;SDS011;27371;42.686;23.362;2023-09-08T06:50:55;5.75;;;2.70;;
41687;SDS011;27371;42.686;23.362;2023-09-08T06:53:24;9.30;;;3.13;;
41687;SDS011;27371;42.686;23.362;2023-09-08T06:55:50;8.85;;;2.75;;
41687;SDS011;27371;42.686;23.362;2023-09-08T06:58:16;5.28;;;2.88;;
41687;SDS011;27371;42.686;23.362;2023-09-08T07:00:41;5.78;;;2.92;;
41687;SDS011;27371;42.686;23.362;2023-09-08T07:03:07;6.40;;;2.80;;
41687;SDS011;27371;42.686;23.362;2023-09-08T07:05:37;7.55;;;3.15;;
41687;SDS011;27371;42.686;23.362;2023-09-08T07:08:04;5.18;;;2.65;;
41687;SDS011;27371;42.686;23.362;2023-09-08T07:10:31;6.82;;;2.78;;
41687;SDS011;27371;42.686;23.362;2023-09-08T07:12:56;4.80;;;3.00;;
41687;SDS011;27371;42.686;23.362;2023-09-08T07:15:22;4.60;;;2.28;;
41687;SDS011;27371;42.686;23.362;2023-09-08T07:17:47;3.65;;;2.20;;
41687;SDS011;27371;42.686;23.362;2023-09-08T07:20:13;5.35;;;2.35;;
41687;SDS011;27371;42.686;23.362;2023-09-08T07:22:38;3.70;;;2.20;;
41687;SDS011;27371;42.686;23.362;2023-09-08T07:25:04;5.63;;;2.42;;
41687;SDS011;27371;42.686;23.362;2023-09-08T07:27:30;5.53;;;2.28;;
41687;SDS011;27371;42.686;23.362;2023-09-08T07:29:55;6.78;;;2.10;;
41687;SDS011;27371;42.686;23.362;2023-09-08T07:32:21;5.30;;;3.00;;
41687;SDS011;27371;42.686;23.362;2023-09-08T07:34:48;3.35;;;2.10;;
41687;SDS011;27371;42.686;23.362;2023-09-08T07:37:20;5.15;;;2.38;;
41687;SDS011;27371;42.686;23.362;2023-09-08T07:39:46;7.03;;;2.30;;
41687;SDS011;27371;42.686;23.362;2023-09-08T07:42:12;4.88;;;2.13;;
41687;SDS011;27371;42.686;23.362;2023-09-08T07:44:37;5.63;;;2.70;;
41687;SDS011;27371;42.686;23.362;2023-09-08T07:47:03;4.93;;;2.03;;
41687;SDS011;27371;42.686;23.362;2023-09-08T07:49:28;9.55;;;2.67;;
41687;SDS011;27371;42.686;23.362;2023-09-08T07:51:54;6.53;;;2.38;;
41687;SDS011;27371;42.686;23.362;2023-09-08T07:54:19;4.05;;;2.42;;
41687;SDS011;27371;42.686;23.362;2023-09-08T07:56:45;4.65;;;2.40;;
41687;SDS011;27371;42.686;23.362;2023-09-08T07:59:10;6.25;;;2.50;;
41687;SDS011;27371;42.686;23.362;2023-09-08T08:01:36;4.72;;;2.35;;
41687;SDS011;27371;42.686;23.362;2023-09-08T08:04:01;8.60;;;2.40;;
41687;SDS011;27371;42.686;23.362;2023-09-08T08:06:28;8.98;;;2.20;;
41687;SDS011;27371;42.686;23.362;2023-09-08T08:08:54;5.63;;;2.50;;
41687;SDS011;27371;42.686;23.362;2023-09-08T08:11:22;3.17;;;2.50;;
41687;SDS011;27371;42.686;23.362;2023-09-08T08:13:48;2.53;;;2.05;;
41687;SDS011;27371;42.686;23.362;2023-09-08T08:16:13;4.95;;;2.42;;
41687;SDS011;27371;42.686;23.362;2023-09-08T08:18:39;4.70;;;2.83;;
41687;SDS011;27371;42.686;23.362;2023-09-08T08:21:04;5.18;;;2.63;;
41687;SDS011;27371;42.686;23.362;2023-09-08T08:23:30;3.85;;;2.10;;
41687;SDS011;27371;42.686;23.362;2023-09-08T08:25:56;4.30;;;2.30;;
41687;SDS011;27371;42.686;23.362;2023-09-08T08:28:22;6.53;;;2.38;;
41687;SDS011;27371;42.686;23.362;2023-09-08T08:30:49;4.45;;;2.00;;
41687;SDS011;27371;42.686;23.362;2023-09-08T08:33:15;3.47;;;2.17;;
41687;SDS011;27371;42.686;23.362;2023-09-08T08:35:40;5.43;;;2.30;;
41687;SDS011;27371;42.686;23.362;2023-09-08T08:38:06;6.10;;;2.10;;
41687;SDS011;27371;42.686;23.362;2023-09-08T08:40:31;3.58;;;2.17;;
41687;SDS011;27371;42.686;23.362;2023-09-08T08:42:59;5.93;;;2.13;;
41687;SDS011;27371;42.686;23.362;2023-09-08T08:45:25;3.70;;;2.22;;
41687;SDS011;27371;42.686;23.362;2023-09-08T08:47:51;7.90;;;2.40;;
41687;SDS011;27371;42.686;23.362;2023-09-08T08:50:17;3.15;;;1.73;;
41687;SDS011;27371;42.686;23.362;2023-09-08T08:52:44;4.68;;;2.20;;
41687;SDS011;27371;42.686;23.362;2023-09-08T08:55:10;4.70;;;2.10;;
41687;SDS011;27371;42.686;23.362;2023-09-08T08:57:39;3.97;;;2.42;;
41687;SDS011;27371;42.686;23.362;2023-09-08T09:00:08;4.10;;;2.60;;
41687;SDS011;27371;42.686;23.362;2023-09-08T09:02:38;4.70;;;2.42;;
41687;SDS011;27371;42.686;23.362;2023-09-08T09:05:05;4.40;;;2.33;;
41687;SDS011;27371;42.686;23.362;2023-09-08T09:07:33;6.22;;;2.35;;
41687;SDS011;27371;42.686;23.362;2023-09-08T09:10:00;5.53;;;1.92;;
41687;SDS011;27371;42.686;23.362;2023-09-08T09:12:25;3.05;;;2.05;;
41687;SDS011;27371;42.686;23.362;2023-09-08T09:14:54;5.20;;;2.40;;
41687;SDS011;27371;42.686;23.362;2023-09-08T09:17:19;7.90;;;2.28;;
41687;SDS011;27371;42.686;23.362;2023-09-08T09:19:45;7.32;;;2.20;;
41687;SDS011;27371;42.686;23.362;2023-09-08T09:22:10;5.07;;;2.33;;
41687;SDS011;27371;42.686;23.362;2023-09-08T09:24:37;3.95;;;2.10;;
41687;SDS011;27371;42.686;23.362;2023-09-08T09:27:11;4.75;;;2.60;;
41687;SDS011;27371;42.686;23.362;2023-09-08T09:29:47;4.00;;;2.35;;
41687;SDS011;27371;42.686;23.362;2023-09-08T09:32:14;5.03;;;2.25;;
41687;SDS011;27371;42.686;23.362;2023-09-08T09:34:50;3.38;;;2.20;;
41687;SDS011;27371;42.686;23.362;2023-09-08T09:37:21;3.47;;;2.42;;
41687;SDS011;27371;42.686;23.362;2023-09-08T09:39:51;6.78;;;2.45;;
41687;SDS011;27371;42.686;23.362;2023-09-08T09:42:18;4.07;;;2.60;;
41687;SDS011;27371;42.686;23.362;2023-09-08T09:44:44;2.97;;;2.20;;
41687;SDS011;27371;42.686;23.362;2023-09-08T09:47:13;4.47;;;1.95;;
41687;SDS011;27371;42.686;23.362;2023-09-08T09:49:45;4.93;;;2.30;;
41687;SDS011;27371;42.686;23.362;2023-09-08T09:52:12;4.70;;;2.47;;
41687;SDS011;27371;42.686;23.362;2023-09-08T09:54:42;4.57;;;2.50;;
41687;SDS011;27371;42.686;23.362;2023-09-08T09:57:13;4.88;;;2.20;;
41687;SDS011;27371;42.686;23.362;2023-09-08T09:59:42;5.38;;;2.72;;
41687;SDS011;27371;42.686;23.362;2023-09-08T10:02:14;3.50;;;2.20;;
41687;SDS011;27371;42.686;23.362;2023-09-08T10:04:40;4.57;;;2.63;;
41687;SDS011;27371;42.686;23.362;2023-09-08T10:07:06;7.95;;;2.90;;
41687;SDS011;27371;42.686;23.362;2023-09-08T10:09:32;3.38;;;2.33;;
41687;SDS011;27371;42.686;23.362;2023-09-08T10:11:59;3.38;;;2.30;;
41687;SDS011;27371;42.686;23.362;2023-09-08T10:14:29;4.18;;;2.45;;
41687;SDS011;27371;42.686;23.362;2023-09-08T10:16:56;4.82;;;2.50;;
41687;SDS011;27371;42.686;23.362;2023-09-08T10:19:24;5.20;;;2.28;;
41687;SDS011;27371;42.686;23.362;2023-09-08T10:21:51;5.78;;;2.33;;
41687;SDS011;27371;42.686;23.362;2023-09-08T10:24:29;5.70;;;2.58;;
41687;SDS011;27371;42.686;23.362;2023-09-08T10:27:04;5.97;;;2.60;;
41687;SDS011;27371;42.686;23.362;2023-09-08T10:29:33;6.05;;;2.78;;
41687;SDS011;27371;42.686;23.362;2023-09-08T10:31:59;6.63;;;2.80;;
41687;SDS011;27371;42.686;23.362;2023-09-08T10:34:25;5.25;;;2.80;;
41687;SDS011;27371;42.686;23.362;2023-09-08T10:36:52;6.50;;;2.35;;
41687;SDS011;27371;42.686;23.362;2023-09-08T10:39:33;5.07;;;2.10;;
41687;SDS011;27371;42.686;23.362;2023-09-08T10:44:44;7.38;;;2.50;;
41687;SDS011;27371;42.686;23.362;2023-09-08T10:47:09;3.22;;;2.20;;
41687;SDS011;27371;42.686;23.362;2023-09-08T10:49:35;6.90;;;2.60;;
41687;SDS011;27371;42.686;23.362;2023-09-08T10:52:07;5.13;;;2.33;;
41687;SDS011;27371;42.686;23.362;2023-09-08T10:54:40;5.82;;;2.10;;
41687;SDS011;27371;42.686;23.362;2023-09-08T10:57:13;8.88;;;2.50;;
41687;SDS011;27371;42.686;23.362;2023-09-08T10:59:44;4.07;;;2.22;;
41687;SDS011;27371;42.686;23.362;2023-09-08T11:05:08;6.28;;;2.50;;
41687;SDS011;27371;42.686;23.362;2023-09-08T11:07:39;4.13;;;2.63;;
41687;SDS011;27371;42.686;23.362;2023-09-08T11:10:06;3.47;;;2.15;;
41687;SDS011;27371;42.686;23.362;2023-09-08T11:12:33;5.20;;;2.70;;
41687;SDS011;27371;42.686;23.362;2023-09-08T11:14:59;6.35;;;2.40;;
41687;SDS011;27371;42.686;23.362;2023-09-08T11:17:27;4.53;;;2.45;;
41687;SDS011;27371;42.686;23.362;2023-09-08T11:19:53;4.80;;;2.78;;
41687;SDS011;27371;42.686;23.362;2023-09-08T11:22:21;5.97;;;2.80;;
41687;SDS011;27371;42.686;23.362;2023-09-08T11:24:49;6.35;;;2.78;;
41687;SDS011;27371;42.686;23.362;2023-09-08T11:27:16;4.82;;;2.60;;
41687;SDS011;27371;42.686;23.362;2023-09-08T11:29:43;8.43;;;2.92;;
41687;SDS011;27371;42.686;23.362;2023-09-08T11:32:09;7.35;;;2.83;;
41687;SDS011;27371;42.686;23.362;2023-09-08T11:34:36;3.03;;;2.42;;
41687;SDS011;27371;42.686;23.362;2023-09-08T11:37:36;5.15;;;2.20;;
41687;SDS011;27371;42.686;23.362;2023-09-08T11:39:53;6.47;;;2.40;;
41687;SDS011;27371;42.686;23.362;2023-09-08T11:42:20;2.78;;;2.20;;
41687;SDS011;27371;42.686;23.362;2023-09-08T11:44:46;6.47;;;2.42;;
41687;SDS011;27371;42.686;23.362;2023-09-08T11:47:13;3.95;;;2.40;;
41687;SDS011;27371;42.686;23.362;2023-09-08T11:49:41;6.90;;;2.75;;
41687;SDS011;27371;42.686;23.362;2023-09-08T11:52:08;6.88;;;2.40;;
41687;SDS011;27371;42.686;23.362;2023-09-08T11:54:34;9.10;;;2.70;;
41687;SDS011;27371;42.686;23.362;2023-09-08T11:57:01;5.72;;;3.15;;
41687;SDS011;27371;42.686;23.362;2023-09-08T11:59:30;4.50;;;2.70;;
41687;SDS011;27371;42.686;23.362;2023-09-08T12:01:57;5.13;;;2.67;;
41687;SDS011;27371;42.686;23.362;2023-09-08T12:04:23;5.78;;;2.83;;
41687;SDS011;27371;42.686;23.362;2023-09-08T12:06:49;4.30;;;2.90;;
41687;SDS011;27371;42.686;23.362;2023-09-08T12:09:16;3.88;;;2.65;;
41687;SDS011;27371;42.686;23.362;2023-09-08T12:11:42;4.03;;;2.67;;
41687;SDS011;27371;42.686;23.362;2023-09-08T12:14:11;8.63;;;2.72;;
41687;SDS011;27371;42.686;23.362;2023-09-08T12:16:38;4.95;;;2.50;;
41687;SDS011;27371;42.686;23.362;2023-09-08T12:19:04;4.78;;;2.65;;
41687;SDS011;27371;42.686;23.362;2023-09-08T12:21:31;5.32;;;2.72;;
41687;SDS011;27371;42.686;23.362;2023-09-08T12:23:57;6.45;;;2.60;;
41687;SDS011;27371;42.686;23.362;2023-09-08T12:26:26;5.20;;;2.63;;
41687;SDS011;27371;42.686;23.362;2023-09-08T12:28:52;6.20;;;2.80;;
41687;SDS011;27371;42.686;23.362;2023-09-08T12:31:18;6.97;;;2.80;;
41687;SDS011;27371;42.686;23.362;2023-09-08T12:33:44;4.97;;;2.40;;
41687;SDS011;27371;42.686;23.362;2023-09-08T12:36:13;7.70;;;2.55;;
41687;SDS011;27371;42.686;23.362;2023-09-08T12:38:40;3.40;;;2.20;;
41687;SDS011;27371;42.686;23.362;2023-09-08T12:41:05;4.05;;;2.53;;
41687;SDS011;27371;42.686;23.362;2023-09-08T12:43:31;3.28;;;2.28;;
41687;SDS011;27371;42.686;23.362;2023-09-08T12:45:56;7.40;;;2.80;;
41687;SDS011;27371;42.686;23.362;2023-09-08T12:48:22;6.65;;;2.88;;
41687;SDS011;27371;42.686;23.362;2023-09-08T12:50:48;5.30;;;2.72;;
41687;SDS011;27371;42.686;23.362;2023-09-08T12:53:14;7.45;;;2.28;;
41687;SDS011;27371;42.686;23.362;2023-09-08T12:55:39;5.65;;;2.53;;
41687;SDS011;27371;42.686;23.362;2023-09-08T12:58:05;4.55;;;2.75;;
41687;SDS011;27371;42.686;23.362;2023-09-08T13:00:31;5.55;;;2.55;;
41687;SDS011;27371;42.686;23.362;2023-09-08T13:02:56;8.82;;;3.20;;
41687;SDS011;27371;42.686;23.362;2023-09-08T13:05:22;5.78;;;3.08;;
41687;SDS011;27371;42.686;23.362;2023-09-08T13:07:47;7.88;;;2.50;;
41687;SDS011;27371;42.686;23.362;2023-09-08T13:10:13;2.83;;;2.30;;
41687;SDS011;27371;42.686;23.362;2023-09-08T13:12:38;5.18;;;2.80;;
41687;SDS011;27371;42.686;23.362;2023-09-08T13:15:04;3.35;;;2.40;;
41687;SDS011;27371;42.686;23.362;2023-09-08T13:17:30;5.28;;;2.70;;
41687;SDS011;27371;42.686;23.362;2023-09-08T13:19:55;3.85;;;2.47;;
41687;SDS011;27371;42.686;23.362;2023-09-08T13:22:21;5.28;;;2.47;;
41687;SDS011;27371;42.686;23.362;2023-09-08T13:24:47;4.47;;;2.63;;
41687;SDS011;27371;42.686;23.362;2023-09-08T13:27:12;6.97;;;2.80;;
41687;SDS011;27371;42.686;23.362;2023-09-08T13:29:40;4.00;;;2.53;;
41687;SDS011;27371;42.686;23.362;2023-09-08T13:32:06;4.43;;;2.75;;
41687;SDS011;27371;42.686;23.362;2023-09-08T13:34:31;3.10;;;2.30;;
41687;SDS011;27371;42.686;23.362;2023-09-08T13:36:57;6.22;;;2.38;;
41687;SDS011;27371;42.686;23.362;2023-09-08T13:39:23;8.23;;;2.75;;
41687;SDS011;27371;42.686;23.362;2023-09-08T13:41:52;5.90;;;2.70;;
41687;SDS011;27371;42.686;23.362;2023-09-08T13:44:19;4.72;;;2.58;;
41687;SDS011;27371;42.686;23.362;2023-09-08T13:46:46;5.20;;;2.55;;
41687;SDS011;27371;42.686;23.362;2023-09-08T13:49:13;3.30;;;2.55;;
41687;SDS011;27371;42.686;23.362;2023-09-08T13:51:39;5.18;;;2.40;;
41687;SDS011;27371;42.686;23.362;2023-09-08T13:54:04;5.47;;;2.60;;
41687;SDS011;27371;42.686;23.362;2023-09-08T13:56:30;5.68;;;2.17;;
41687;SDS011;27371;42.686;23.362;2023-09-08T13:58:55;6.65;;;2.90;;
41687;SDS011;27371;42.686;23.362;2023-09-08T14:01:21;6.43;;;2.70;;
41687;SDS011;27371;42.686;23.362;2023-09-08T14:03:46;5.25;;;2.78;;
41687;SDS011;27371;42.686;23.362;2023-09-08T14:06:16;5.53;;;2.97;;
41687;SDS011;27371;42.686;23.362;2023-09-08T14:08:45;4.68;;;2.42;;
41687;SDS011;27371;42.686;23.362;2023-09-08T14:11:10;9.73;;;3.00;;
41687;SDS011;27371;42.686;23.362;2023-09-08T14:13:37;3.42;;;2.35;;
41687;SDS011;27371;42.686;23.362;2023-09-08T14:16:03;3.63;;;2.50;;
41687;SDS011;27371;42.686;23.362;2023-09-08T14:18:28;4.72;;;2.38;;
41687;SDS011;27371;42.686;23.362;2023-09-08T14:20:55;7.38;;;2.67;;
41687;SDS011;27371;42.686;23.362;2023-09-08T14:23:20;7.50;;;2.85;;
41687;SDS011;27371;42.686;23.362;2023-09-08T14:25:46;4.50;;;2.38;;
41687;SDS011;27371;42.686;23.362;2023-09-08T14:28:11;4.38;;;2.42;;
41687;SDS011;27371;42.686;23.362;2023-09-08T14:30:36;4.07;;;2.05;;
41687;SDS011;27371;42.686;23.362;2023-09-08T14:33:02;7.00;;;2.42;;
41687;SDS011;27371;42.686;23.362;2023-09-08T14:35:28;4.45;;;2.53;;
41687;SDS011;27371;42.686;23.362;2023-09-08T14:37:53;4.35;;;2.42;;
41687;SDS011;27371;42.686;23.362;2023-09-08T14:40:19;6.60;;;2.65;;
41687;SDS011;27371;42.686;23.362;2023-09-08T14:42:47;4.03;;;2.70;;